createdAt,value
2022-10-01T00:01:15.527Z,14.53
2022-10-01T00:03:50.512Z,14.57
2022-10-01T00:06:24.927Z,14.50
2022-10-01T00:08:59.262Z,14.36
2022-10-01T00:11:34.474Z,14.29
2022-10-01T00:14:09.554Z,14.41
2022-10-01T00:16:45.010Z,14.37
2022-10-01T00:19:19.340Z,14.45
2022-10-01T00:21:53.393Z,14.41
2022-10-01T00:24:27.992Z,14.28
2022-10-01T00:27:02.078Z,14.28
2022-10-01T00:29:37.216Z,14.30
2022-10-01T00:32:12.757Z,14.38
2022-10-01T00:34:47.047Z,14.28
2022-10-01T00:37:22.333Z,14.16
2022-10-01T00:39:56.815Z,14.06
2022-10-01T00:42:30.883Z,14.16
2022-10-01T00:45:05.858Z,14.21
2022-10-01T00:47:44.850Z,14.34
2022-10-01T00:50:24.238Z,14.31
2022-10-01T00:53:03.014Z,14.27
2022-10-01T00:55:41.704Z,14.18
2022-10-01T00:58:16.671Z,14.11
2022-10-01T01:00:52.560Z,14.11
2022-10-01T01:03:28.192Z,14.15
2022-10-01T01:06:03.539Z,14.15
2022-10-01T01:08:37.600Z,13.99
2022-10-01T01:11:19.610Z,13.94
2022-10-01T01:14:00.477Z,14.08
2022-10-01T01:16:39.204Z,14.11
2022-10-01T01:19:26.866Z,14.15
2022-10-01T01:22:05.563Z,14.19
2022-10-01T01:24:50.294Z,14.26
2022-10-01T01:27:34.442Z,14.32
2022-10-01T01:30:12.589Z,14.43
2022-10-01T01:32:53.873Z,14.47
2022-10-01T01:35:32.300Z,14.35
2022-10-01T01:38:11.672Z,14.35
2022-10-01T01:40:51.654Z,14.27
2022-10-01T01:43:31.431Z,14.33
2022-10-01T01:46:10.274Z,14.34
2022-10-01T01:48:51.048Z,14.32
2022-10-01T01:51:33.019Z,14.42
2022-10-01T01:54:07.938Z,14.41
2022-10-01T01:56:42.103Z,14.48
2022-10-01T01:59:18.703Z,14.41
2022-10-01T02:01:54.533Z,14.38
2022-10-01T02:04:33.218Z,14.46
2022-10-01T02:07:25.750Z,14.47
2022-10-01T02:10:12.048Z,14.43
2022-10-01T02:13:01.638Z,14.40
2022-10-01T02:15:43.109Z,14.45
2022-10-01T02:18:29.153Z,14.43
2022-10-01T02:21:12.064Z,14.46
2022-10-01T02:23:50.548Z,14.55
2022-10-01T02:26:26.763Z,14.53
2022-10-01T02:29:04.719Z,14.46
2022-10-01T02:31:39.217Z,14.49
2022-10-01T02:34:20.114Z,14.49
2022-10-01T02:36:56.636Z,14.49
2022-10-01T02:39:34.237Z,14.68
2022-10-01T02:42:10.210Z,14.60
2022-10-01T02:44:46.734Z,14.36
2022-10-01T02:47:24.246Z,14.48
2022-10-01T02:49:59.888Z,14.51
2022-10-01T02:52:41.864Z,14.81
2022-10-01T02:55:20.282Z,14.62
2022-10-01T02:57:54.900Z,14.72
2022-10-01T03:00:29.486Z,14.34
2022-10-01T03:03:03.804Z,14.24
2022-10-01T03:05:39.423Z,14.43
2022-10-01T03:08:13.892Z,14.53
2022-10-01T03:10:48.038Z,14.30
2022-10-01T03:13:23.540Z,14.20
2022-10-01T03:15:57.631Z,14.28
2022-10-01T03:18:32.214Z,14.34
2022-10-01T03:21:07.560Z,14.31
2022-10-01T03:23:41.836Z,14.58
2022-10-01T03:26:15.790Z,14.33
2022-10-01T03:28:50.176Z,14.11
2022-10-01T03:31:24.230Z,14.01
2022-10-01T03:34:00.508Z,14.17
2022-10-01T03:36:35.942Z,14.30
2022-10-01T03:39:10.354Z,14.34
2022-10-01T03:41:44.687Z,14.44
2022-10-01T03:44:19.027Z,14.41
2022-10-01T03:46:53.037Z,14.33
2022-10-01T03:49:27.464Z,14.29
2022-10-01T03:52:03.478Z,14.34
2022-10-01T03:54:39.468Z,14.42
2022-10-01T03:57:13.572Z,14.42
2022-10-01T03:59:47.964Z,14.40
2022-10-01T04:02:22.104Z,14.44
2022-10-01T04:04:56.495Z,14.40
2022-10-01T04:07:31.836Z,14.41
2022-10-01T04:10:07.061Z,14.54
2022-10-01T04:12:41.090Z,14.47
2022-10-01T04:15:16.924Z,14.42
2022-10-01T04:17:51.088Z,14.48
2022-10-01T04:20:25.971Z,14.54
2022-10-01T04:23:01.799Z,14.43
2022-10-01T04:25:36.531Z,14.36
2022-10-01T04:28:13.644Z,14.41
2022-10-01T04:30:48.134Z,14.40
2022-10-01T04:33:22.208Z,14.40
2022-10-01T04:35:56.479Z,14.51
2022-10-01T04:38:31.859Z,14.52
2022-10-01T04:41:06.475Z,14.60
2022-10-01T04:43:40.516Z,14.52
2022-10-01T04:46:16.769Z,14.48
2022-10-01T04:48:50.871Z,14.47
2022-10-01T04:51:25.260Z,14.52
2022-10-01T04:54:00.761Z,14.74
2022-10-01T04:56:35.113Z,14.52
2022-10-01T04:59:09.228Z,14.52
2022-10-01T05:01:43.656Z,15.51
2022-10-01T05:04:17.731Z,16.15
2022-10-01T05:06:52.243Z,16.43
2022-10-01T05:09:27.566Z,15.95
2022-10-01T05:12:02.172Z,15.46
2022-10-01T05:14:36.179Z,15.39
2022-10-01T05:17:10.433Z,15.24
2022-10-01T05:19:44.795Z,14.89
2022-10-01T05:22:19.404Z,14.49
2022-10-01T05:24:54.979Z,14.53
2022-10-01T05:27:29.411Z,14.62
2022-10-01T05:30:04.481Z,14.64
2022-10-01T05:32:39.583Z,14.66
2022-10-01T05:35:13.601Z,14.71
2022-10-01T05:37:47.999Z,14.58
2022-10-01T05:40:27.660Z,14.59
2022-10-01T05:43:03.319Z,14.64
2022-10-01T05:45:37.435Z,14.69
2022-10-01T05:48:12.939Z,14.63
2022-10-01T05:50:47.068Z,14.67
2022-10-01T05:53:22.472Z,14.75
2022-10-01T05:56:00.479Z,14.83
2022-10-01T05:58:35.284Z,14.88
2022-10-01T06:01:09.353Z,14.85
2022-10-01T06:03:44.440Z,14.88
2022-10-01T06:06:22.361Z,15.94
2022-10-01T06:08:56.836Z,15.94
2022-10-01T06:11:32.583Z,16.37
2022-10-01T06:14:07.343Z,15.99
2022-10-01T06:16:41.441Z,16.55
2022-10-01T06:19:17.878Z,16.01
2022-10-01T06:21:52.945Z,15.85
2022-10-01T06:24:27.309Z,15.70
2022-10-01T06:27:02.781Z,15.51
2022-10-01T06:29:37.238Z,15.41
2022-10-01T06:32:14.195Z,15.26
2022-10-01T06:34:48.674Z,15.27
2022-10-01T06:37:22.757Z,15.26
2022-10-01T06:40:00.200Z,15.19
2022-10-01T06:42:35.695Z,15.06
2022-10-01T06:45:10.769Z,15.08
2022-10-01T06:47:45.074Z,15.07
2022-10-01T06:50:19.510Z,15.08
2022-10-01T06:52:54.230Z,15.16
2022-10-01T06:55:31.364Z,15.15
2022-10-01T06:58:09.317Z,14.95
2022-10-01T07:00:44.660Z,14.98
2022-10-01T07:03:20.869Z,15.06
2022-10-01T07:05:55.237Z,15.02
2022-10-01T07:08:29.314Z,15.03
2022-10-01T07:11:05.174Z,15.06
2022-10-01T07:13:40.580Z,15.06
2022-10-01T07:16:15.641Z,15.13
2022-10-01T07:18:50.088Z,15.20
2022-10-01T07:21:25.073Z,15.25
2022-10-01T07:23:59.205Z,15.32
2022-10-01T07:26:34.399Z,16.23
2022-10-01T07:29:10.508Z,16.02
2022-10-01T07:31:44.928Z,15.92
2022-10-01T07:34:19.080Z,15.80
2022-10-01T07:36:54.351Z,15.74
2022-10-01T07:39:28.457Z,15.54
2022-10-01T07:42:03.200Z,15.45
2022-10-01T07:44:38.614Z,15.48
2022-10-01T07:47:12.939Z,15.61
2022-10-01T07:49:47.044Z,15.44
2022-10-01T07:52:21.343Z,15.58
2022-10-01T07:54:55.463Z,15.59
2022-10-01T07:57:29.914Z,15.63
2022-10-01T08:00:09.501Z,15.45
2022-10-01T08:02:48.512Z,15.47
2022-10-01T08:05:24.989Z,15.67
2022-10-01T08:08:00.956Z,15.78
2022-10-01T08:10:36.735Z,15.82
2022-10-01T08:13:15.417Z,15.84
2022-10-01T08:15:53.524Z,15.77
2022-10-01T08:18:27.635Z,15.93
2022-10-01T08:21:02.129Z,16.11
2022-10-01T08:23:36.700Z,16.51
2022-10-01T08:26:11.875Z,16.46
2022-10-01T08:28:45.875Z,16.33
2022-10-01T08:31:21.633Z,16.30
2022-10-01T08:33:55.792Z,16.13
2022-10-01T08:36:30.833Z,16.18
2022-10-01T08:39:05.059Z,16.17
2022-10-01T08:41:51.958Z,16.27
2022-10-01T08:44:33.565Z,16.41
2022-10-01T08:47:14.560Z,16.22
2022-10-01T08:49:54.785Z,16.33
2022-10-01T08:52:32.334Z,16.21
2022-10-01T08:55:11.746Z,16.29
2022-10-01T08:57:50.937Z,16.13
2022-10-01T09:00:25.293Z,16.29
2022-10-01T09:03:06.242Z,16.29
2022-10-01T09:05:53.711Z,16.44
2022-10-01T09:08:45.342Z,17.03
2022-10-01T09:11:33.606Z,17.36
2022-10-01T09:14:34.229Z,17.12
2022-10-01T09:17:20.034Z,17.24
2022-10-01T09:20:08.244Z,17.16
2022-10-01T09:22:46.514Z,17.27
2022-10-01T09:25:23.880Z,17.16
2022-10-01T09:28:03.054Z,17.32
2022-10-01T09:30:38.568Z,17.42
2022-10-01T09:33:17.448Z,17.36
2022-10-01T09:35:57.819Z,17.07
2022-10-01T09:38:37.656Z,17.30
2022-10-01T09:41:14.679Z,17.49
2022-10-01T09:43:48.801Z,17.29
2022-10-01T09:46:24.280Z,17.34
2022-10-01T09:49:03.336Z,17.37
2022-10-01T09:51:44.647Z,17.39
2022-10-01T09:54:23.299Z,17.38
2022-10-01T09:57:10.927Z,17.34
2022-10-01T09:59:50.579Z,17.48
2022-10-01T10:02:29.778Z,17.56
2022-10-01T10:05:07.036Z,17.68
2022-10-01T10:07:47.030Z,17.82
2022-10-01T10:10:26.065Z,17.95
2022-10-01T10:13:03.048Z,18.09
2022-10-01T10:15:41.314Z,18.14
2022-10-01T10:18:23.024Z,18.23
2022-10-01T10:21:00.373Z,18.26
2022-10-01T10:23:36.298Z,18.26
2022-10-01T10:26:21.845Z,18.32
2022-10-01T10:28:57.445Z,18.52
2022-10-01T10:31:40.414Z,18.58
2022-10-01T10:34:18.762Z,18.60
2022-10-01T10:36:58.957Z,18.49
2022-10-01T10:39:37.784Z,18.52
2022-10-01T10:42:16.420Z,18.42
2022-10-01T10:44:52.922Z,18.82
2022-10-01T10:47:28.477Z,18.87
2022-10-01T10:50:06.006Z,18.84
2022-10-01T10:52:44.958Z,18.79
2022-10-01T10:55:26.937Z,18.73
2022-10-01T10:58:11.584Z,18.76
2022-10-01T11:00:47.824Z,18.89
2022-10-01T11:03:27.361Z,19.05
2022-10-01T11:06:10.072Z,19.37
2022-10-01T11:08:45.197Z,19.77
2022-10-01T11:11:37.643Z,20.00
2022-10-01T11:14:24.511Z,20.34
2022-10-01T11:17:27.430Z,20.47
2022-10-01T11:20:20.867Z,20.22
2022-10-01T11:23:04.873Z,20.37
2022-10-01T11:25:49.332Z,20.27
2022-10-01T11:28:38.716Z,20.20
2022-10-01T11:31:19.772Z,20.30
2022-10-01T11:34:08.875Z,20.35
2022-10-01T11:36:55.515Z,20.37
2022-10-01T11:39:33.297Z,20.29
2022-10-01T11:42:12.405Z,19.97
2022-10-01T11:45:00.522Z,20.00
2022-10-01T11:47:41.789Z,20.06
2022-10-01T11:50:20.036Z,20.23
2022-10-01T11:52:59.457Z,20.62
2022-10-01T11:55:58.596Z,20.86
2022-10-01T11:58:52.819Z,21.10
2022-10-01T12:01:35.528Z,21.21
2022-10-01T12:04:18.852Z,21.44
2022-10-01T12:06:58.083Z,21.29
2022-10-01T12:09:40.371Z,21.79
2022-10-01T12:12:20.484Z,21.80
2022-10-01T12:15:06.430Z,21.64
2022-10-01T12:17:46.306Z,21.38
2022-10-01T12:20:26.152Z,21.40
2022-10-01T12:23:03.736Z,21.23
2022-10-01T12:25:49.147Z,21.11
2022-10-01T12:28:32.533Z,21.02
2022-10-01T12:31:14.379Z,20.88
2022-10-01T12:34:04.238Z,20.73
2022-10-01T12:36:50.049Z,20.75
2022-10-01T12:39:37.593Z,21.12
2022-10-01T12:42:33.604Z,21.71
2022-10-01T12:45:17.537Z,22.05
2022-10-01T12:48:03.312Z,22.43
2022-10-01T12:50:50.371Z,22.66
2022-10-01T12:53:37.492Z,22.31
2022-10-01T12:56:17.489Z,21.97
2022-10-01T12:59:08.237Z,22.52
2022-10-01T13:01:59.930Z,22.67
2022-10-01T13:05:17.907Z,22.55
2022-10-01T13:08:22.707Z,22.74
2022-10-01T13:11:06.818Z,23.30
2022-10-01T13:13:41.704Z,23.12
2022-10-01T13:16:25.863Z,23.01
2022-10-01T13:19:07.029Z,23.33
2022-10-01T13:21:55.065Z,23.47
2022-10-01T13:24:41.260Z,23.44
2022-10-01T13:27:22.732Z,23.50
2022-10-01T13:30:02.078Z,23.63
2022-10-01T13:32:51.156Z,23.73
2022-10-01T13:35:34.453Z,23.84
2022-10-01T13:38:15.629Z,24.16
2022-10-01T13:41:01.418Z,23.75
2022-10-01T13:43:36.943Z,23.53
2022-10-01T13:46:12.269Z,23.23
2022-10-01T13:48:49.703Z,22.91
2022-10-01T13:51:35.185Z,22.52
2022-10-01T13:54:18.786Z,22.64
2022-10-01T13:56:54.339Z,22.45
2022-10-01T13:59:35.885Z,22.21
2022-10-01T14:02:32.131Z,21.96
2022-10-01T14:05:25.478Z,21.89
2022-10-01T14:08:11.942Z,21.37
2022-10-01T14:11:09.991Z,21.33
2022-10-01T14:14:05.316Z,21.41
2022-10-01T14:16:43.484Z,21.30
2022-10-01T14:19:22.020Z,21.29
2022-10-01T14:22:21.511Z,21.17
2022-10-01T14:25:27.544Z,21.08
2022-10-01T14:28:22.329Z,20.78
2022-10-01T14:31:07.027Z,20.79
2022-10-01T14:34:04.357Z,20.64
2022-10-01T14:36:44.501Z,20.24
2022-10-01T14:39:20.710Z,19.79
2022-10-01T14:41:56.737Z,19.58
2022-10-01T14:44:32.809Z,19.25
2022-10-01T20:10:06.039Z,14.20
2022-10-01T21:25:33.329Z,15.08
2022-10-01T21:28:18.704Z,15.08
2022-10-01T21:31:08.069Z,14.40
2022-10-01T21:33:52.040Z,14.45
2022-10-01T21:36:34.544Z,14.45
2022-10-01T21:39:15.613Z,14.29
2022-10-01T21:42:04.725Z,14.20
2022-10-01T21:45:01.074Z,14.09
2022-10-01T21:47:50.861Z,14.03
2022-10-01T21:50:37.199Z,14.11
2022-10-01T21:53:44.061Z,14.09
2022-10-01T21:56:39.676Z,14.09
2022-10-01T21:59:33.105Z,14.04
2022-10-01T22:02:19.426Z,13.91
2022-10-01T22:04:57.984Z,13.96
2022-10-01T22:07:38.550Z,13.99
2022-10-01T22:10:17.398Z,13.81
2022-10-01T22:12:55.092Z,13.82
2022-10-01T22:15:40.632Z,13.85
2022-10-01T22:18:20.076Z,13.76
2022-10-01T22:20:57.496Z,13.76
2022-10-01T22:23:37.744Z,13.66
2022-10-01T22:26:14.294Z,13.66
2022-10-01T22:28:51.966Z,13.75
2022-10-01T22:31:36.457Z,13.81
2022-10-01T22:34:15.955Z,13.83
2022-10-01T22:36:55.168Z,13.81
2022-10-01T22:39:33.516Z,13.89
2022-10-01T22:42:12.327Z,13.74
2022-10-01T22:44:48.072Z,13.63
2022-10-01T22:47:40.312Z,13.63
2022-10-01T22:50:29.581Z,13.67
2022-10-01T22:53:28.054Z,13.65
2022-10-01T22:56:02.333Z,13.70
2022-10-01T22:59:01.048Z,13.66
2022-10-01T23:01:46.449Z,13.65
2022-10-01T23:04:36.626Z,13.55
2022-10-01T23:07:19.926Z,13.48
2022-10-01T23:10:01.921Z,13.46
2022-10-01T23:12:46.971Z,13.57
2022-10-01T23:15:33.411Z,13.53
2022-10-01T23:18:18.076Z,13.36
2022-10-01T23:21:08.397Z,13.49
2022-10-01T23:23:47.682Z,13.50
2022-10-01T23:26:36.511Z,13.53
2022-10-01T23:29:32.199Z,13.24
2022-10-01T23:32:21.725Z,13.40
2022-10-01T23:35:04.677Z,13.37
2022-10-01T23:37:58.162Z,13.30
2022-10-01T23:40:35.687Z,13.45
2022-10-01T23:43:17.526Z,13.41
2022-10-01T23:45:59.371Z,13.28
2022-10-01T23:48:39.819Z,13.16
2022-10-01T23:51:20.262Z,13.24
2022-10-01T23:54:00.301Z,13.23
2022-10-01T23:56:51.405Z,13.24
2022-10-01T23:59:32.570Z,13.31
